createdAt,value
2022-08-27T00:00:50.217Z,95288.4
2022-08-27T00:01:53.069Z,95290.1
2022-08-27T00:02:55.363Z,95288.8
2022-08-27T00:03:57.775Z,95289.6
2022-08-27T00:05:00.344Z,95286.9
2022-08-27T00:06:02.519Z,95288.8
2022-08-27T00:07:05.001Z,95295.7
2022-08-27T00:08:07.744Z,95297.4
2022-08-27T00:09:10.238Z,95304
2022-08-27T00:10:12.732Z,95308.9
2022-08-27T00:11:14.941Z,95312.4
2022-08-27T00:12:17.142Z,95311
2022-08-27T00:13:19.616Z,95312.7
2022-08-27T00:14:22.084Z,95315.8
2022-08-27T00:15:24.007Z,95316.8
2022-08-27T00:16:28.288Z,95321.4
2022-08-27T00:17:33.268Z,95319.9
2022-08-27T00:18:35.733Z,95324.4
2022-08-27T00:19:38.209Z,95321.8
2022-08-27T00:20:40.410Z,95325.5
2022-08-27T00:21:42.891Z,95321
2022-08-27T00:22:44.801Z,95318.5
2022-08-27T00:23:47.288Z,95316.5
2022-08-27T00:24:50.508Z,95317.5
2022-08-27T00:25:52.735Z,95315.2
2022-08-27T00:26:55.248Z,95318.2
2022-08-27T00:27:57.150Z,95313.4
2022-08-27T00:28:59.354Z,95317.6
2022-08-27T00:30:01.567Z,95317.1
2022-08-27T00:31:04.091Z,95314.7
2022-08-27T00:32:07.159Z,95320
2022-08-27T00:33:09.454Z,95318
2022-08-27T00:35:16.666Z,95319.3
2022-08-27T00:36:18.959Z,95318
2022-08-27T00:37:21.160Z,95321.8
2022-08-27T00:38:23.394Z,95322.5
2022-08-27T00:39:25.854Z,95323.8
2022-08-27T00:40:28.719Z,95322.1
2022-08-27T00:41:31.029Z,95319.3
2022-08-27T00:42:33.510Z,95317
2022-08-27T00:43:35.719Z,95317.4
2022-08-27T00:44:38.214Z,95311.4
2022-08-27T00:45:40.751Z,95313.3
2022-08-27T00:46:43.303Z,95309
2022-08-27T00:47:45.771Z,95308.1
2022-08-27T00:48:48.256Z,95305
2022-08-27T00:49:50.448Z,95302.4
2022-08-27T00:50:52.930Z,95303.1
2022-08-27T00:51:55.397Z,95299.8
2022-08-27T00:52:57.873Z,95302.4
2022-08-27T00:54:00.075Z,95299.2
2022-08-27T00:55:02.282Z,95299
2022-08-27T00:56:04.482Z,95298.8
2022-08-27T00:57:06.962Z,95303.9
2022-08-27T00:58:09.704Z,95302.2
2022-08-27T00:59:12.488Z,95302.5
2022-08-27T01:00:14.409Z,95304.5
2022-08-27T01:01:16.940Z,95299.9
2022-08-27T01:02:19.989Z,95298.3
2022-08-27T01:03:22.323Z,95297.5
2022-08-27T01:04:24.252Z,95294.8
2022-08-27T01:05:26.451Z,95293
2022-08-27T01:06:28.922Z,95296.5
2022-08-27T01:07:31.144Z,95296.4
2022-08-27T01:08:33.100Z,95296.7
2022-08-27T01:09:35.582Z,95296.8
2022-08-27T01:10:37.777Z,95294
2022-08-27T01:11:40.262Z,95292.5
2022-08-27T01:12:44.432Z,95286
2022-08-27T01:14:55.870Z,95285.2
2022-08-27T01:15:58.505Z,95286.8
2022-08-27T01:17:01.076Z,95288.2
2022-08-27T01:18:03.768Z,95281.6
2022-08-27T01:19:06.234Z,95284.7
2022-08-27T01:20:08.719Z,95282.2
2022-08-27T01:21:10.926Z,95283.5
2022-08-27T01:23:18.131Z,95279.6
2022-08-27T01:24:20.606Z,95278.4
2022-08-27T01:25:23.079Z,95277.2
2022-08-27T01:26:25.562Z,95281.3
2022-08-27T01:27:27.740Z,95278.9
2022-08-27T01:29:35.226Z,95278.7
2022-08-27T01:30:37.452Z,95280.7
2022-08-27T01:31:39.946Z,95281.4
2022-08-27T01:32:42.547Z,95277
2022-08-27T01:33:44.467Z,95277.8
2022-08-27T01:34:46.666Z,95281
2022-08-27T01:35:49.137Z,95282.4
2022-08-27T01:39:01.981Z,95289.6
2022-08-27T01:40:05.820Z,95292.5
2022-08-27T01:41:08.496Z,95289.3
2022-08-27T01:42:11.266Z,95290.9
2022-08-27T01:43:13.735Z,95292.5
2022-08-27T01:45:23.332Z,95294.6
2022-08-27T01:46:25.892Z,95294.4
2022-08-27T01:48:33.408Z,95295.3
2022-08-27T01:49:35.059Z,95299
2022-08-27T01:50:36.955Z,95293.7
2022-08-27T01:51:39.428Z,95297.4
2022-08-27T01:52:41.596Z,95299.2
2022-08-27T01:53:44.074Z,95299.6
2022-08-27T01:54:46.549Z,95295.3
2022-08-27T01:55:49.628Z,95299.4
2022-08-27T01:56:52.203Z,95297.3
2022-08-27T01:57:54.124Z,95297.8
2022-08-27T01:58:56.338Z,95292.4
2022-08-27T01:59:58.692Z,95294.5
2022-08-27T02:01:01.474Z,95292.5
2022-08-27T02:02:04.071Z,95291.2
2022-08-27T02:03:06.974Z,95289.6
2022-08-27T02:04:09.449Z,95290.7
2022-08-27T02:05:11.672Z,95294.3
2022-08-27T02:06:14.145Z,95294.3
2022-08-27T02:07:16.096Z,95288.2
2022-08-27T02:08:18.053Z,95292.4
2022-08-27T02:09:20.522Z,95294.2
2022-08-27T02:10:22.724Z,95291.4
2022-08-27T02:11:24.921Z,95290.9
2022-08-27T02:12:27.402Z,95291.4
2022-08-27T02:13:29.877Z,95287.5
2022-08-27T02:14:32.358Z,95282.8
2022-08-27T02:15:34.824Z,95285.2
2022-08-27T02:17:42.305Z,95284.8
2022-08-27T02:18:45.001Z,95282.1
2022-08-27T02:19:47.176Z,95282.3
2022-08-27T02:20:49.650Z,95277.6
2022-08-27T02:21:52.112Z,95279.6
2022-08-27T02:22:54.286Z,95272.9
2022-08-27T02:23:56.489Z,95272.9
2022-08-27T02:24:59.636Z,95276.8
2022-08-27T02:26:01.844Z,95276
2022-08-27T02:27:04.315Z,95274.2
2022-08-27T02:28:06.819Z,95270.9
2022-08-27T02:29:09.099Z,95270.6
2022-08-27T02:30:11.294Z,95269.6
2022-08-27T02:31:14.089Z,95268.4
2022-08-27T02:33:21.500Z,95270.8
2022-08-27T02:34:23.976Z,95269.8
2022-08-27T02:35:26.502Z,95267.5
2022-08-27T02:36:28.977Z,95267.1
2022-08-27T02:37:31.177Z,95267.5
2022-08-27T02:38:33.646Z,95265.2
2022-08-27T02:40:40.833Z,95268.3
2022-08-27T02:41:43.035Z,95264.6
2022-08-27T02:42:45.227Z,95263.3
2022-08-27T02:44:53.668Z,95267.3
2022-08-27T02:45:56.151Z,95261.3
2022-08-27T02:46:58.612Z,95260
2022-08-27T02:48:00.912Z,95261.9
2022-08-27T02:49:03.099Z,95262.9
2022-08-27T02:50:05.019Z,95262.9
2022-08-27T02:51:07.216Z,95262.4
2022-08-27T02:52:09.983Z,95261.4
2022-08-27T02:53:12.927Z,95259.2
2022-08-27T02:54:15.401Z,95260.3
2022-08-27T02:55:18.597Z,95259.9
2022-08-27T02:56:24.364Z,95258.1
2022-08-27T02:57:26.832Z,95257.3
2022-08-27T02:58:29.028Z,95258.7
2022-08-27T02:59:31.499Z,95257.3
2022-08-27T03:00:33.967Z,95259.9
2022-08-27T03:01:36.623Z,95257.7
2022-08-27T03:02:39.961Z,95258.1
2022-08-27T03:03:42.584Z,95259.7
2022-08-27T03:04:45.066Z,95254.3
2022-08-27T03:05:47.256Z,95255.1
2022-08-27T03:06:49.733Z,95256.5
2022-08-27T03:07:52.210Z,95252
2022-08-27T03:08:54.930Z,95252.2
2022-08-27T03:09:57.393Z,95252.3
2022-08-27T03:10:59.877Z,95250.8
2022-08-27T03:12:02.346Z,95251.5
2022-08-27T03:13:04.275Z,95251.7
2022-08-27T03:14:06.762Z,95250.4
2022-08-27T03:15:09.009Z,95251.5
2022-08-27T03:16:11.553Z,95254.5
2022-08-27T03:17:13.838Z,95254.2
2022-08-27T03:18:15.748Z,95254.3
2022-08-27T03:20:23.217Z,95256.6
2022-08-27T03:21:25.418Z,95251.2
2022-08-27T03:22:27.344Z,95253.5
2022-08-27T03:23:29.815Z,95248.8
2022-08-27T03:24:32.734Z,95253.7
2022-08-27T03:25:36.456Z,95251.2
2022-08-27T03:26:39.020Z,95257.3
2022-08-27T03:27:41.215Z,95257.6
2022-08-27T03:28:43.394Z,95257.8
2022-08-27T03:29:45.885Z,95260.5
2022-08-27T03:30:48.726Z,95262.5
2022-08-27T03:31:51.202Z,95261.2
2022-08-27T03:32:53.417Z,95265.1
2022-08-27T03:33:55.321Z,95268.2
2022-08-27T03:34:57.791Z,95265
2022-08-27T03:36:00.272Z,95264.8
2022-08-27T03:37:02.464Z,95267.6
2022-08-27T03:38:05.107Z,95269.1
2022-08-27T03:39:07.302Z,95267.8
2022-08-27T03:40:09.830Z,95268.6
2022-08-27T03:41:12.166Z,95268.3
2022-08-27T03:42:14.651Z,95265.6
2022-08-27T03:43:17.144Z,95265.2
2022-08-27T03:45:24.617Z,95269.9
2022-08-27T03:46:27.206Z,95261.8
2022-08-27T03:47:29.797Z,95270.5
2022-08-27T03:48:32.579Z,95269.6
2022-08-27T03:49:35.041Z,95268.4
2022-08-27T03:50:37.531Z,95269.9
2022-08-27T03:51:40.013Z,95267.7
2022-08-27T03:52:42.502Z,95271.4
2022-08-27T03:53:44.970Z,95268.4
2022-08-27T03:54:47.440Z,95266.5
2022-08-27T03:55:49.914Z,95269.5
2022-08-27T03:56:52.386Z,95267.2
2022-08-27T03:57:54.867Z,95266.3
2022-08-27T03:58:57.074Z,95263.9
2022-08-27T03:59:59.532Z,95266
2022-08-27T04:01:02.029Z,95265.8
2022-08-27T04:02:05.654Z,95264.7
2022-08-27T04:03:08.514Z,95263.7
2022-08-27T04:04:11.113Z,95263.5
2022-08-27T04:05:13.061Z,95263.9
2022-08-27T04:06:15.530Z,95267.8
2022-08-27T04:07:17.736Z,95264.5
2022-08-27T04:08:20.214Z,95265.3
2022-08-27T04:09:22.395Z,95267.2
2022-08-27T04:10:24.294Z,95266.5
2022-08-27T04:11:26.491Z,95266.6
2022-08-27T04:12:28.666Z,95267.6
2022-08-27T04:13:31.145Z,95270.8
2022-08-27T04:14:32.762Z,95271.6
2022-08-27T04:16:40.721Z,95269.6
2022-08-27T04:17:42.924Z,95275
2022-08-27T04:18:45.130Z,95272.4
2022-08-27T04:19:47.311Z,95274.3
2022-08-27T04:20:49.481Z,95275.9
2022-08-27T04:21:51.955Z,95278.7
2022-08-27T04:22:54.153Z,95280.6
2022-08-27T04:23:56.742Z,95279.1
2022-08-27T04:24:58.933Z,95284.4
2022-08-27T04:26:01.555Z,95285.3
2022-08-27T04:27:03.722Z,95286.1
2022-08-27T04:28:06.213Z,95282.5
2022-08-27T04:29:08.428Z,95289.6
2022-08-27T04:30:10.722Z,95292.1
2022-08-27T04:32:17.917Z,95283.6
2022-08-27T04:33:21.711Z,95289.6
2022-08-27T04:34:23.911Z,95286.5
2022-08-27T04:35:26.105Z,95293.5
2022-08-27T04:36:28.583Z,95293.4
2022-08-27T04:37:31.060Z,95289.1
2022-08-27T04:38:34.920Z,95296
2022-08-27T04:39:37.392Z,95294.5
2022-08-27T04:40:39.857Z,95296.3
2022-08-27T04:41:42.344Z,95286.1
2022-08-27T04:42:44.533Z,95284.7
2022-08-27T04:43:46.467Z,95287.4
2022-08-27T04:44:48.940Z,95296.1
2022-08-27T04:45:51.138Z,95289.6
2022-08-27T04:46:53.457Z,95286
2022-08-27T04:47:56.021Z,95290.5
2022-08-27T04:48:58.491Z,95285.6
2022-08-27T04:50:03.197Z,95293
2022-08-27T04:52:13.408Z,95289.9
2022-08-27T04:53:18.518Z,95288
2022-08-27T04:55:26.735Z,95290.5
2022-08-27T04:56:29.207Z,95294.6
2022-08-27T04:57:31.394Z,95290.8
2022-08-27T04:58:35.340Z,95290.4
2022-08-27T04:59:38.102Z,95293
2022-08-27T05:00:40.301Z,95290.8
2022-08-27T05:01:43.156Z,95295.8
2022-08-27T05:02:45.720Z,95293.8
2022-08-27T05:03:48.188Z,95297.7
2022-08-27T05:04:50.641Z,95298.1
2022-08-27T05:05:52.648Z,95298.5
2022-08-27T05:06:57.208Z,95301.4
2022-08-27T05:07:59.674Z,95301.3
2022-08-27T05:09:02.152Z,95298.8
2022-08-27T05:10:04.352Z,95303.9
2022-08-27T05:11:06.834Z,95303.4
2022-08-27T05:12:08.730Z,95303.3
2022-08-27T05:13:11.211Z,95306.4
2022-08-27T05:14:13.691Z,95303.7
2022-08-27T05:15:15.886Z,95300.3
2022-08-27T05:16:18.674Z,95302.6
2022-08-27T05:17:21.312Z,95302.9
2022-08-27T05:18:23.785Z,95299.2
2022-08-27T05:19:26.278Z,95305.7
2022-08-27T05:20:28.745Z,95297.5
2022-08-27T05:21:31.228Z,95300.2
2022-08-27T05:22:33.420Z,95298
2022-08-27T05:24:40.884Z,95300.5
2022-08-27T05:25:43.371Z,95300.8
2022-08-27T05:26:45.837Z,95299.8
2022-08-27T05:27:47.738Z,95300.6
2022-08-27T05:28:49.923Z,95298.7
2022-08-27T05:29:52.133Z,95299.4
2022-08-27T05:31:59.605Z,95293.8
2022-08-27T05:33:02.505Z,95291.6
2022-08-27T05:36:16.385Z,95287.9
2022-08-27T05:37:18.591Z,95284
2022-08-27T05:38:21.059Z,95281.2
2022-08-27T05:39:23.542Z,95280.3
2022-08-27T05:40:26.288Z,95284.6
2022-08-27T05:42:33.585Z,95279.3
2022-08-27T05:43:35.517Z,95281.1
2022-08-27T05:45:42.735Z,95282
2022-08-27T05:46:45.478Z,95281.4
2022-08-27T05:47:47.944Z,95288.5
2022-08-27T05:48:50.443Z,95284.9
2022-08-27T05:49:53.025Z,95283.9
2022-08-27T05:50:55.496Z,95290.6
2022-08-27T05:51:57.684Z,95288.8
2022-08-27T05:52:59.867Z,95285.8
2022-08-27T05:55:07.819Z,95294.7
2022-08-27T05:56:10.311Z,95297.4
2022-08-27T05:57:12.595Z,95292.9
2022-08-27T05:58:14.786Z,95293.9
2022-08-27T05:59:16.699Z,95291.9
2022-08-27T06:00:18.877Z,95295.6
2022-08-27T06:01:21.633Z,95292.3
2022-08-27T06:02:24.124Z,95296.5
2022-08-27T06:03:26.772Z,95297.1
2022-08-27T06:04:29.260Z,95293.9
2022-08-27T06:05:32.039Z,95295.3
2022-08-27T06:06:34.362Z,95290.8
2022-08-27T06:07:36.828Z,95297.2
2022-08-27T06:08:39.304Z,95299.6
2022-08-27T06:09:41.790Z,95297.1
2022-08-27T06:10:43.981Z,95299.8
2022-08-27T06:11:46.475Z,95301.6
2022-08-27T06:12:48.974Z,95300.7
2022-08-27T06:13:55.649Z,95299.9
2022-08-27T06:14:58.135Z,95304.3
2022-08-27T06:16:00.920Z,95300.2
2022-08-27T06:17:03.276Z,95299.4
2022-08-27T06:18:05.748Z,95302.9
2022-08-27T06:19:07.945Z,95301.3
2022-08-27T06:20:10.413Z,95301.9
2022-08-27T06:21:12.906Z,95300.8
2022-08-27T06:22:15.105Z,95299.9
2022-08-27T06:23:17.301Z,95300.6
2022-08-27T06:24:23.977Z,95292
2022-08-27T06:25:26.456Z,95299.7
2022-08-27T06:26:28.937Z,95299.2
2022-08-27T06:27:30.846Z,95297.8
2022-08-27T06:28:33.398Z,95295.8
2022-08-27T06:29:35.863Z,95296.6
2022-08-27T06:30:38.334Z,95295.9
2022-08-27T06:31:42.178Z,95295.7
2022-08-27T06:32:44.377Z,95294.1
2022-08-27T06:33:46.900Z,95295.2
2022-08-27T06:34:49.100Z,95294.6
2022-08-27T06:35:51.595Z,95299.9
2022-08-27T06:36:53.508Z,95298.9
2022-08-27T06:37:55.726Z,95300.9
2022-08-27T06:38:58.201Z,95302.5
2022-08-27T06:40:00.855Z,95299.9
2022-08-27T06:41:03.161Z,95303.8
2022-08-27T06:42:05.353Z,95301.5
2022-08-27T06:43:07.281Z,95297.5
2022-08-27T06:44:09.482Z,95301.3
2022-08-27T06:45:11.954Z,95298.5
2022-08-27T06:46:14.850Z,95303.8
2022-08-27T06:48:22.700Z,95304.4
2022-08-27T06:49:25.184Z,95305.1
2022-08-27T06:50:29.210Z,95301.2
2022-08-27T06:51:31.410Z,95304.8
2022-08-27T06:52:33.328Z,95302.5
2022-08-27T06:53:35.815Z,95306.1
2022-08-27T06:54:38.280Z,95309.7
2022-08-27T06:55:40.799Z,95306.2
2022-08-27T06:56:43.001Z,95306
2022-08-27T06:57:46.016Z,95304
2022-08-27T06:58:48.217Z,95305.2
2022-08-27T06:59:50.698Z,95302.2
2022-08-27T07:00:53.170Z,95302.5
2022-08-27T07:01:55.890Z,95302.2
2022-08-27T07:02:58.415Z,95300.3
2022-08-27T07:04:01.063Z,95298
2022-08-27T07:05:04.108Z,95294.6
2022-08-27T07:06:06.432Z,95294
2022-08-27T07:07:08.902Z,95295.5
2022-08-27T07:08:12.213Z,95298
2022-08-27T07:09:14.511Z,95297.6
2022-08-27T07:10:16.722Z,95298.8
2022-08-27T07:11:19.200Z,95301.4
2022-08-27T07:13:26.676Z,95300.3
2022-08-27T07:14:30.937Z,95303
2022-08-27T07:15:38.460Z,95301.1
2022-08-27T07:17:49.811Z,95303
2022-08-27T07:18:52.744Z,95309.2
2022-08-27T07:19:55.406Z,95305.7
2022-08-27T07:20:57.883Z,95310.7
2022-08-27T07:22:00.659Z,95313.4
2022-08-27T07:23:03.132Z,95312.9
2022-08-27T07:24:06.042Z,95317.5
2022-08-27T07:25:07.955Z,95318.4
2022-08-27T07:26:10.430Z,95317.8
2022-08-27T07:27:12.334Z,95317.8
2022-08-27T07:28:14.795Z,95319.1
2022-08-27T07:29:17.005Z,95321
2022-08-27T07:30:19.214Z,95320.2
2022-08-27T07:31:21.769Z,95320.8
2022-08-27T07:33:29.337Z,95321.7
2022-08-27T07:34:31.298Z,95320.1
2022-08-27T07:35:33.491Z,95325.3
2022-08-27T07:36:35.691Z,95323.7
2022-08-27T07:37:38.172Z,95324.2
2022-08-27T07:38:40.650Z,95325.3
2022-08-27T07:39:43.132Z,95329.6
2022-08-27T07:40:45.640Z,95329.2
2022-08-27T07:41:47.862Z,95331.9
2022-08-27T07:42:50.058Z,95332.9
2022-08-27T07:44:57.000Z,95332
2022-08-27T07:45:59.209Z,95330
2022-08-27T07:47:01.746Z,95333.9
2022-08-27T07:48:03.934Z,95335.8
2022-08-27T07:49:06.257Z,95334.1
2022-08-27T07:50:08.462Z,95335
2022-08-27T07:51:10.948Z,95336.9
2022-08-27T07:52:13.161Z,95334.2
2022-08-27T07:53:17.067Z,95334.2
2022-08-27T07:54:19.275Z,95335.5
2022-08-27T07:55:22.694Z,95334.7
2022-08-27T07:56:25.183Z,95332
2022-08-27T07:57:27.083Z,95335.5
2022-08-27T07:58:29.288Z,95336.3
2022-08-27T07:59:31.197Z,95335.6
2022-08-27T08:00:35.520Z,95336.9
2022-08-27T08:01:42.140Z,95343.8
2022-08-27T08:02:45.073Z,95342.2
2022-08-27T08:03:47.196Z,95345
2022-08-27T08:04:49.418Z,95342.7
2022-08-27T08:05:51.837Z,95347.7
2022-08-27T08:06:54.306Z,95343.2
2022-08-27T08:07:56.774Z,95343.3
2022-08-27T08:09:00.360Z,95344.1
2022-08-27T08:10:02.281Z,95345.4
2022-08-27T08:11:04.474Z,95347.9
2022-08-27T08:12:06.686Z,95346.9
2022-08-27T08:13:09.170Z,95347.8
2022-08-27T08:14:11.370Z,95349.5
2022-08-27T08:15:13.604Z,95346.5
2022-08-27T08:16:15.545Z,95349.1
2022-08-27T08:17:18.110Z,95348.1
2022-08-27T08:18:21.604Z,95348.6
2022-08-27T08:19:24.097Z,95347.3
2022-08-27T08:21:31.041Z,95351.3
2022-08-27T08:22:33.236Z,95351.8
2022-08-27T08:23:35.442Z,95351.4
2022-08-27T08:24:37.924Z,95354.3
2022-08-27T08:25:39.857Z,95350.1
2022-08-27T08:26:42.291Z,95350.7
2022-08-27T08:27:44.819Z,95351.5
2022-08-27T08:28:47.311Z,95355.5
2022-08-27T08:29:49.492Z,95356.9
2022-08-27T08:30:52.356Z,95354.3
2022-08-27T08:31:54.665Z,95355.3
2022-08-27T08:32:57.153Z,95359.1
2022-08-27T08:34:03.902Z,95356.4
2022-08-27T08:35:06.390Z,95358.1
2022-08-27T08:36:08.868Z,95358.4
2022-08-27T08:37:11.335Z,95353.5
2022-08-27T08:38:13.942Z,95356.8
2022-08-27T08:39:16.431Z,95356.5
2022-08-27T08:40:21.851Z,95360.1
2022-08-27T08:41:24.215Z,95362
2022-08-27T08:42:26.683Z,95362.1
2022-08-27T08:43:29.164Z,95356.5
2022-08-27T08:44:31.371Z,95360.7
2022-08-27T08:45:33.885Z,95360
2022-08-27T08:46:36.354Z,95358.8
2022-08-27T08:47:38.867Z,95363.6
2022-08-27T08:49:47.916Z,95357.7
2022-08-27T08:50:50.389Z,95355.8
2022-08-27T08:51:52.878Z,95353.4
2022-08-27T08:52:55.354Z,95358.6
2022-08-27T08:53:57.561Z,95354.7
2022-08-27T08:54:59.498Z,95354.7
2022-08-27T08:56:02.017Z,95359.8
2022-08-27T08:57:05.889Z,95357.6
2022-08-27T08:58:08.294Z,95357.8
2022-08-27T08:59:10.788Z,95359.1
2022-08-27T09:00:13.919Z,95355
2022-08-27T09:01:16.677Z,95351.7
2022-08-27T09:02:19.262Z,95352.8
2022-08-27T09:03:21.920Z,95353.3
2022-08-27T09:04:23.956Z,95351.7
2022-08-27T09:06:31.153Z,95351.5
2022-08-27T09:07:33.636Z,95350.7
2022-08-27T09:09:40.569Z,95353.3
2022-08-27T09:10:43.063Z,95351.9
2022-08-27T09:11:45.541Z,95349.9
2022-08-27T09:12:48.023Z,95355
2022-08-27T09:13:50.517Z,95353.7
2022-08-27T09:15:57.990Z,95351.5
2022-08-27T09:17:02.275Z,95347.8
2022-08-27T09:19:15.188Z,95355.9
2022-08-27T09:20:18.606Z,95351.7
2022-08-27T09:22:26.367Z,95353.1
2022-08-27T09:23:28.843Z,95350.2
2022-08-27T09:24:31.057Z,95352.3
2022-08-27T09:25:33.536Z,95354.4
2022-08-27T09:27:41.752Z,95356
2022-08-27T09:28:44.227Z,95358.3
2022-08-27T09:29:46.700Z,95358
2022-08-27T09:30:49.470Z,95356.7
2022-08-27T09:31:52.018Z,95360.2
2022-08-27T09:32:54.497Z,95360.3
2022-08-27T09:33:58.482Z,95359.9
2022-08-27T09:35:00.974Z,95358.5
2022-08-27T09:36:03.445Z,95362.8
2022-08-27T09:37:05.657Z,95359.6
2022-08-27T09:38:08.275Z,95356.7
2022-08-27T09:39:10.758Z,95360.1
2022-08-27T09:41:20.438Z,95364.5
2022-08-27T09:42:22.919Z,95360.9
2022-08-27T09:43:25.126Z,95363.1
2022-08-27T09:44:27.334Z,95361.9
2022-08-27T09:45:30.018Z,95357.6
2022-08-27T09:46:32.628Z,95357
2022-08-27T09:47:34.829Z,95352.3
2022-08-27T09:48:38.301Z,95355.8
2022-08-27T09:49:40.773Z,95355.8
2022-08-27T09:50:45.505Z,95350.1
2022-08-27T09:51:47.440Z,95350.7
2022-08-27T09:52:49.633Z,95350.7
2022-08-27T09:53:52.816Z,95345.3
2022-08-27T09:54:55.297Z,95346.5
2022-08-27T09:55:58.743Z,95344.6
2022-08-27T09:57:02.640Z,95345
2022-08-27T09:58:05.305Z,95342.4
2022-08-27T09:59:07.502Z,95341
2022-08-27T10:00:10.202Z,95344.4
2022-08-27T10:01:12.874Z,95343
2022-08-27T10:02:15.573Z,95341.5
2022-08-27T10:03:17.772Z,95343.8
2022-08-27T10:04:20.560Z,95342.4
2022-08-27T10:05:22.846Z,95340.3
2022-08-27T10:06:25.047Z,95339.6
2022-08-27T10:07:27.538Z,95340.1
2022-08-27T10:08:29.444Z,95341
2022-08-27T10:09:31.661Z,95344
2022-08-27T10:10:34.133Z,95335.3
2022-08-27T10:11:36.343Z,95339.6
2022-08-27T10:12:38.812Z,95335.5
2022-08-27T10:13:41.353Z,95337.8
2022-08-27T10:14:43.830Z,95340
2022-08-27T10:16:51.705Z,95337.3
2022-08-27T10:17:54.306Z,95337.8
2022-08-27T10:18:56.776Z,95337.8
2022-08-27T10:19:58.987Z,95336.6
2022-08-27T10:22:08.444Z,95334.6
2022-08-27T10:23:10.647Z,95336.5
2022-08-27T10:24:13.242Z,95336.8
2022-08-27T10:25:15.444Z,95333.7
2022-08-27T10:26:17.648Z,95338.1
2022-08-27T10:27:21.350Z,95334.2
2022-08-27T10:28:23.820Z,95340.5
2022-08-27T10:29:26.311Z,95335
2022-08-27T10:30:28.816Z,95335.3
2022-08-27T10:31:31.592Z,95334.5
2022-08-27T10:32:33.862Z,95337.5
2022-08-27T10:33:36.786Z,95337.8
2022-08-27T10:36:51.217Z,95333
2022-08-27T10:37:53.426Z,95331.8
2022-08-27T10:38:55.617Z,95327.7
2022-08-27T10:39:58.111Z,95334.1
2022-08-27T10:41:00.661Z,95329
2022-08-27T10:42:03.135Z,95334.1
2022-08-27T10:43:05.608Z,95331.9
2022-08-27T10:44:08.103Z,95332.1
2022-08-27T10:45:10.298Z,95329.3
2022-08-27T10:46:13.004Z,95326.7
2022-08-27T10:47:15.301Z,95329
2022-08-27T10:48:17.232Z,95326.7
2022-08-27T10:50:24.428Z,95321.1
2022-08-27T10:51:26.602Z,95319.1
2022-08-27T10:52:29.155Z,95320
2022-08-27T10:53:31.337Z,95321.4
2022-08-27T10:54:34.076Z,95319.1
2022-08-27T10:55:36.651Z,95321.1
2022-08-27T10:56:39.118Z,95320.9
2022-08-27T10:58:46.049Z,95312.4
2022-08-27T10:59:48.537Z,95319.1
2022-08-27T11:00:51.488Z,95317.8
2022-08-27T11:01:54.498Z,95316.3
2022-08-27T11:02:57.052Z,95315.5
2022-08-27T11:03:59.531Z,95314
2022-08-27T11:05:02.015Z,95312.2
2022-08-27T11:06:04.234Z,95311.6
2022-08-27T11:07:06.713Z,95313.5
2022-08-27T11:08:08.923Z,95307.9
2022-08-27T11:09:10.974Z,95309.7
2022-08-27T11:10:13.178Z,95308.4
2022-08-27T11:12:20.646Z,95311.4
2022-08-27T11:13:23.127Z,95309.2
2022-08-27T11:14:25.598Z,95312.2
2022-08-27T11:15:27.802Z,95311.9
2022-08-27T11:16:30.377Z,95310.5
2022-08-27T11:17:33.994Z,95313.8
2022-08-27T11:18:36.475Z,95308.9
2022-08-27T11:19:38.965Z,95306.6
2022-08-27T11:20:40.315Z,95308.3
2022-08-27T11:21:42.518Z,95306.3
2022-08-27T11:22:44.995Z,95301.9
2022-08-27T11:23:47.494Z,95305.5
2022-08-27T11:24:49.705Z,95310
2022-08-27T11:25:52.215Z,95309
2022-08-27T11:26:54.423Z,95312
2022-08-27T11:27:56.624Z,95311.7
2022-08-27T11:28:59.098Z,95310.4
2022-08-27T11:30:02.120Z,95308.4
2022-08-27T11:31:04.392Z,95309.1
2022-08-27T11:32:06.747Z,95304.7
2022-08-27T11:34:14.220Z,95306.7
2022-08-27T11:35:16.699Z,95301.9
2022-08-27T11:36:19.180Z,95300.6
2022-08-27T11:37:21.679Z,95299.2
2022-08-27T11:38:24.151Z,95305.4
2022-08-27T11:39:26.631Z,95305.7
2022-08-27T11:40:29.528Z,95305
2022-08-27T11:42:36.892Z,95301.7
2022-08-27T11:43:39.369Z,95301.8
2022-08-27T11:44:41.852Z,95298.7
2022-08-27T11:46:49.553Z,95297
2022-08-27T11:47:51.858Z,95294.3
2022-08-27T11:49:58.763Z,95298.5
2022-08-27T11:51:01.246Z,95300
2022-08-27T11:52:03.445Z,95296.8
2022-08-27T11:53:05.637Z,95299.3
2022-08-27T11:54:08.111Z,95296.4
2022-08-27T11:55:10.597Z,95297.7
2022-08-27T11:56:13.078Z,95295.1
2022-08-27T11:57:15.003Z,95299.5
2022-08-27T11:58:17.197Z,95293
2022-08-27T11:59:19.417Z,95291
2022-08-27T12:00:21.388Z,95293.3
2022-08-27T12:01:23.592Z,95281.2
2022-08-27T12:02:26.123Z,95288.7
2022-08-27T12:03:28.972Z,95285.2
2022-08-27T12:04:32.030Z,95283.5
2022-08-27T12:05:34.742Z,95280.9
2022-08-27T12:06:36.941Z,95278
2022-08-27T12:07:38.870Z,95280.4
2022-08-27T12:08:41.349Z,95281.3
2022-08-27T12:09:43.834Z,95278.6
2022-08-27T12:10:47.232Z,95276.5
2022-08-27T12:12:55.419Z,95275.9
2022-08-27T12:14:01.879Z,95272.4
2022-08-27T12:15:03.813Z,95269.7
2022-08-27T12:16:06.252Z,95267.7
2022-08-27T12:17:08.529Z,95262.2
2022-08-27T12:18:11.274Z,95264.6
2022-08-27T12:19:13.416Z,95266.4
2022-08-27T12:20:15.910Z,95266.6
2022-08-27T12:21:18.108Z,95262.1
2022-08-27T12:22:20.035Z,95262.2
2022-08-27T12:23:21.970Z,95261.7
2022-08-27T12:24:24.454Z,95261.5
2022-08-27T12:25:26.945Z,95259.4
2022-08-27T12:26:29.141Z,95262
2022-08-27T12:27:31.053Z,95260.7
2022-08-27T12:28:33.252Z,95255.8
2022-08-27T12:30:43.567Z,95257.5
2022-08-27T12:31:46.264Z,95253.7
2022-08-27T12:32:48.913Z,95254.1
2022-08-27T12:33:50.849Z,95251.9
2022-08-27T12:36:00.096Z,95246.1
2022-08-27T12:38:08.753Z,95241
2022-08-27T12:39:15.678Z,95237.9
2022-08-27T12:41:23.153Z,95240.5
2022-08-27T12:42:25.623Z,95239.7
2022-08-27T12:43:27.820Z,95240.6
2022-08-27T12:44:30.294Z,95239.9
2022-08-27T12:45:32.778Z,95239.2
2022-08-27T12:46:35.551Z,95240.8
2022-08-27T12:47:37.551Z,95238.8
2022-08-27T12:48:40.040Z,95245
2022-08-27T12:49:42.262Z,95240.9
2022-08-27T12:50:44.742Z,95241.8
2022-08-27T12:51:47.211Z,95238.1
2022-08-27T12:52:49.707Z,95239.6
2022-08-27T12:53:52.178Z,95241.4
2022-08-27T12:54:54.386Z,95239.7
2022-08-27T12:55:56.578Z,95238.6
2022-08-27T12:56:58.813Z,95240.5
2022-08-27T12:58:02.059Z,95240.3
2022-08-27T12:59:04.574Z,95237.6
2022-08-27T13:00:06.857Z,95236.6
2022-08-27T13:01:09.787Z,95239.9
2022-08-27T13:02:12.448Z,95238.3
2022-08-27T13:03:14.782Z,95234.1
2022-08-27T13:04:17.290Z,95234.1
2022-08-27T13:05:19.774Z,95235.2
2022-08-27T13:06:22.944Z,95231.6
2022-08-27T13:08:30.918Z,95231.1
2022-08-27T13:09:32.848Z,95228.2
2022-08-27T13:10:35.053Z,95229.4
2022-08-27T13:11:37.562Z,95230.8
2022-08-27T13:12:39.771Z,95226.3
2022-08-27T13:13:42.246Z,95223.9
2022-08-27T13:15:49.756Z,95218.3
2022-08-27T13:16:52.042Z,95219.4
2022-08-27T13:17:55.080Z,95219.4
2022-08-27T13:18:57.314Z,95220.7
2022-08-27T13:19:59.521Z,95220.2
2022-08-27T13:21:01.729Z,95217.8
2022-08-27T13:22:04.204Z,95215.2
2022-08-27T13:23:06.414Z,95215.8
2022-08-27T13:24:08.649Z,95211.7
2022-08-27T13:25:11.126Z,95217.2
2022-08-27T13:26:13.327Z,95210.2
2022-08-27T13:27:15.250Z,95210.5
2022-08-27T13:28:17.734Z,95210.9
2022-08-27T13:29:19.947Z,95209.3
2022-08-27T13:31:28.329Z,95206
2022-08-27T13:32:30.962Z,95208.4
2022-08-27T13:33:32.888Z,95206.8
2022-08-27T13:34:35.079Z,95205.5
2022-08-27T13:35:37.560Z,95204.6
2022-08-27T13:36:40.055Z,95210
2022-08-27T13:37:42.272Z,95203.2
2022-08-27T13:39:51.763Z,95204.9
2022-08-27T13:40:54.015Z,95206.3
2022-08-27T13:41:56.765Z,95206.4
2022-08-27T13:42:58.970Z,95211.5
2022-08-27T13:44:01.870Z,95210.2
2022-08-27T13:45:03.798Z,95210
2022-08-27T13:46:05.697Z,95211